sensor_id;sensor_type;location;lat;lon;timestamp;P1;durP1;ratioP1;P2;durP2;ratioP2
31206;SDS011;17834;52.992;8.856;2023-02-28T00:01:21;24.83;;;10.57;;
31206;SDS011;17834;52.992;8.856;2023-02-28T00:03:48;24.70;;;11.13;;
31206;SDS011;17834;52.992;8.856;2023-02-28T00:06:13;24.55;;;10.43;;
31206;SDS011;17834;52.992;8.856;2023-02-28T00:08:39;21.60;;;9.93;;
31206;SDS011;17834;52.992;8.856;2023-02-28T00:11:07;23.33;;;10.80;;
31206;SDS011;17834;52.992;8.856;2023-02-28T00:13:34;25.52;;;11.18;;
31206;SDS011;17834;52.992;8.856;2023-02-28T00:16:02;22.77;;;10.45;;
31206;SDS011;17834;52.992;8.856;2023-02-28T00:18:28;24.63;;;10.27;;
31206;SDS011;17834;52.992;8.856;2023-02-28T00:20:54;20.73;;;9.15;;
31206;SDS011;17834;52.992;8.856;2023-02-28T00:23:20;19.38;;;10.10;;
31206;SDS011;17834;52.992;8.856;2023-02-28T00:25:46;19.60;;;9.32;;
31206;SDS011;17834;52.992;8.856;2023-02-28T00:28:12;17.02;;;9.13;;
31206;SDS011;17834;52.992;8.856;2023-02-28T00:30:38;19.23;;;9.15;;
31206;SDS011;17834;52.992;8.856;2023-02-28T00:33:04;16.95;;;8.40;;
31206;SDS011;17834;52.992;8.856;2023-02-28T00:35:30;16.20;;;8.95;;
31206;SDS011;17834;52.992;8.856;2023-02-28T00:37:56;17.10;;;9.90;;
31206;SDS011;17834;52.992;8.856;2023-02-28T00:40:22;16.30;;;9.30;;
31206;SDS011;17834;52.992;8.856;2023-02-28T00:42:48;17.58;;;9.05;;
31206;SDS011;17834;52.992;8.856;2023-02-28T00:45:14;17.73;;;9.32;;
31206;SDS011;17834;52.992;8.856;2023-02-28T00:47:40;20.02;;;9.93;;
31206;SDS011;17834;52.992;8.856;2023-02-28T00:50:06;22.65;;;10.85;;
31206;SDS011;17834;52.992;8.856;2023-02-28T00:52:32;17.63;;;9.60;;
31206;SDS011;17834;52.992;8.856;2023-02-28T00:54:58;23.77;;;10.85;;
31206;SDS011;17834;52.992;8.856;2023-02-28T00:57:24;21.42;;;11.43;;
31206;SDS011;17834;52.992;8.856;2023-02-28T00:59:51;21.23;;;10.48;;
31206;SDS011;17834;52.992;8.856;2023-02-28T01:02:19;18.92;;;9.98;;
31206;SDS011;17834;52.992;8.856;2023-02-28T01:04:45;16.10;;;10.00;;
31206;SDS011;17834;52.992;8.856;2023-02-28T01:07:11;19.58;;;10.13;;
31206;SDS011;17834;52.992;8.856;2023-02-28T01:09:38;18.65;;;8.73;;
31206;SDS011;17834;52.992;8.856;2023-02-28T01:12:04;22.33;;;9.27;;
31206;SDS011;17834;52.992;8.856;2023-02-28T01:14:30;18.95;;;9.52;;
31206;SDS011;17834;52.992;8.856;2023-02-28T01:16:56;18.67;;;9.75;;
31206;SDS011;17834;52.992;8.856;2023-02-28T01:19:22;17.85;;;8.50;;
31206;SDS011;17834;52.992;8.856;2023-02-28T01:21:48;18.45;;;9.00;;
31206;SDS011;17834;52.992;8.856;2023-02-28T01:24:14;18.83;;;9.07;;
31206;SDS011;17834;52.992;8.856;2023-02-28T01:26:40;17.05;;;9.13;;
31206;SDS011;17834;52.992;8.856;2023-02-28T01:29:06;14.93;;;8.50;;
31206;SDS011;17834;52.992;8.856;2023-02-28T01:31:31;21.30;;;9.15;;
31206;SDS011;17834;52.992;8.856;2023-02-28T01:33:57;17.30;;;9.40;;
31206;SDS011;17834;52.992;8.856;2023-02-28T01:36:23;15.95;;;8.60;;
31206;SDS011;17834;52.992;8.856;2023-02-28T01:38:50;22.20;;;8.68;;
31206;SDS011;17834;52.992;8.856;2023-02-28T01:41:17;15.98;;;8.27;;
31206;SDS011;17834;52.992;8.856;2023-02-28T01:46:09;15.10;;;8.00;;
31206;SDS011;17834;52.992;8.856;2023-02-28T01:48:37;15.20;;;7.93;;
31206;SDS011;17834;52.992;8.856;2023-02-28T01:51:05;16.23;;;8.20;;
31206;SDS011;17834;52.992;8.856;2023-02-28T01:53:34;16.02;;;8.65;;
31206;SDS011;17834;52.992;8.856;2023-02-28T01:56:02;18.08;;;8.75;;
31206;SDS011;17834;52.992;8.856;2023-02-28T01:58:29;14.55;;;8.10;;
31206;SDS011;17834;52.992;8.856;2023-02-28T02:00:55;16.00;;;8.02;;
31206;SDS011;17834;52.992;8.856;2023-02-28T02:03:22;21.85;;;8.93;;
31206;SDS011;17834;52.992;8.856;2023-02-28T02:05:48;12.25;;;7.15;;
31206;SDS011;17834;52.992;8.856;2023-02-28T02:08:18;13.75;;;7.32;;
31206;SDS011;17834;52.992;8.856;2023-02-28T02:10:45;15.23;;;8.50;;
31206;SDS011;17834;52.992;8.856;2023-02-28T02:15:41;15.82;;;7.60;;
31206;SDS011;17834;52.992;8.856;2023-02-28T02:25:40;12.95;;;7.70;;
31206;SDS011;17834;52.992;8.856;2023-02-28T02:28:22;13.75;;;7.85;;
31206;SDS011;17834;52.992;8.856;2023-02-28T02:37:08;13.30;;;7.60;;
31206;SDS011;17834;52.992;8.856;2023-02-28T02:39:19;13.20;;;7.68;;
31206;SDS011;17834;52.992;8.856;2023-02-28T02:41:49;13.15;;;7.60;;
31206;SDS011;17834;52.992;8.856;2023-02-28T02:47:12;16.08;;;7.97;;
31206;SDS011;17834;52.992;8.856;2023-02-28T02:49:39;15.55;;;8.23;;
31206;SDS011;17834;52.992;8.856;2023-02-28T02:52:08;12.40;;;7.25;;
31206;SDS011;17834;52.992;8.856;2023-02-28T02:54:38;15.43;;;7.82;;
31206;SDS011;17834;52.992;8.856;2023-02-28T02:57:06;17.20;;;7.65;;
31206;SDS011;17834;52.992;8.856;2023-02-28T02:59:34;13.18;;;7.25;;
31206;SDS011;17834;52.992;8.856;2023-02-28T03:02:01;19.60;;;8.23;;
31206;SDS011;17834;52.992;8.856;2023-02-28T03:04:30;15.00;;;7.82;;
31206;SDS011;17834;52.992;8.856;2023-02-28T03:06:58;15.65;;;8.05;;
31206;SDS011;17834;52.992;8.856;2023-02-28T03:09:24;13.55;;;7.95;;
31206;SDS011;17834;52.992;8.856;2023-02-28T03:11:51;19.27;;;8.38;;
31206;SDS011;17834;52.992;8.856;2023-02-28T03:19:38;13.68;;;7.10;;
31206;SDS011;17834;52.992;8.856;2023-02-28T03:27:26;13.95;;;7.03;;
31206;SDS011;17834;52.992;8.856;2023-02-28T03:30:14;14.52;;;7.68;;
31206;SDS011;17834;52.992;8.856;2023-02-28T03:35:31;15.63;;;6.68;;
31206;SDS011;17834;52.992;8.856;2023-02-28T03:38:09;16.75;;;7.25;;
31206;SDS011;17834;52.992;8.856;2023-02-28T03:40:38;11.27;;;6.57;;
31206;SDS011;17834;52.992;8.856;2023-02-28T03:43:08;12.75;;;6.88;;
31206;SDS011;17834;52.992;8.856;2023-02-28T03:45:35;11.00;;;6.68;;
31206;SDS011;17834;52.992;8.856;2023-02-28T03:48:14;11.63;;;6.95;;
31206;SDS011;17834;52.992;8.856;2023-02-28T03:50:42;12.27;;;7.15;;
31206;SDS011;17834;52.992;8.856;2023-02-28T03:53:25;13.32;;;6.65;;
31206;SDS011;17834;52.992;8.856;2023-02-28T03:55:56;13.10;;;7.55;;
31206;SDS011;17834;52.992;8.856;2023-02-28T04:00:57;11.45;;;7.00;;
31206;SDS011;17834;52.992;8.856;2023-02-28T04:03:24;13.27;;;7.20;;
31206;SDS011;17834;52.992;8.856;2023-02-28T04:05:52;14.38;;;5.93;;
31206;SDS011;17834;52.992;8.856;2023-02-28T04:08:18;19.95;;;6.97;;
31206;SDS011;17834;52.992;8.856;2023-02-28T04:10:45;12.73;;;6.68;;
31206;SDS011;17834;52.992;8.856;2023-02-28T04:13:13;13.43;;;6.75;;
31206;SDS011;17834;52.992;8.856;2023-02-28T04:15:39;13.25;;;7.22;;
31206;SDS011;17834;52.992;8.856;2023-02-28T04:18:06;14.27;;;7.05;;
31206;SDS011;17834;52.992;8.856;2023-02-28T04:20:32;14.30;;;7.38;;
31206;SDS011;17834;52.992;8.856;2023-02-28T04:22:57;14.50;;;7.63;;
31206;SDS011;17834;52.992;8.856;2023-02-28T04:25:23;12.63;;;7.25;;
31206;SDS011;17834;52.992;8.856;2023-02-28T04:27:49;13.15;;;7.18;;
31206;SDS011;17834;52.992;8.856;2023-02-28T04:30:15;13.82;;;7.68;;
31206;SDS011;17834;52.992;8.856;2023-02-28T04:32:41;12.98;;;7.40;;
31206;SDS011;17834;52.992;8.856;2023-02-28T04:35:07;13.50;;;7.30;;
31206;SDS011;17834;52.992;8.856;2023-02-28T04:37:34;11.93;;;7.07;;
31206;SDS011;17834;52.992;8.856;2023-02-28T04:40:01;10.43;;;6.28;;
31206;SDS011;17834;52.992;8.856;2023-02-28T04:42:27;12.25;;;7.35;;
31206;SDS011;17834;52.992;8.856;2023-02-28T04:45:00;13.27;;;6.82;;
31206;SDS011;17834;52.992;8.856;2023-02-28T04:47:26;15.30;;;7.70;;
31206;SDS011;17834;52.992;8.856;2023-02-28T04:49:52;15.57;;;8.00;;
31206;SDS011;17834;52.992;8.856;2023-02-28T04:52:18;13.00;;;7.18;;
31206;SDS011;17834;52.992;8.856;2023-02-28T04:54:44;16.80;;;8.13;;
31206;SDS011;17834;52.992;8.856;2023-02-28T04:57:10;16.23;;;7.68;;
31206;SDS011;17834;52.992;8.856;2023-02-28T04:59:36;13.68;;;7.82;;
31206;SDS011;17834;52.992;8.856;2023-02-28T05:02:02;12.02;;;7.40;;
31206;SDS011;17834;52.992;8.856;2023-02-28T05:04:31;16.45;;;7.85;;
31206;SDS011;17834;52.992;8.856;2023-02-28T05:06:59;13.65;;;7.53;;
31206;SDS011;17834;52.992;8.856;2023-02-28T05:09:24;11.30;;;6.60;;
31206;SDS011;17834;52.992;8.856;2023-02-28T05:11:50;13.30;;;8.13;;
31206;SDS011;17834;52.992;8.856;2023-02-28T05:14:16;12.70;;;6.60;;
31206;SDS011;17834;52.992;8.856;2023-02-28T05:16:42;12.88;;;6.80;;
31206;SDS011;17834;52.992;8.856;2023-02-28T05:19:08;16.50;;;8.05;;
31206;SDS011;17834;52.992;8.856;2023-02-28T05:21:35;11.80;;;7.20;;
31206;SDS011;17834;52.992;8.856;2023-02-28T05:24:04;13.95;;;8.18;;
31206;SDS011;17834;52.992;8.856;2023-02-28T05:26:33;16.02;;;7.32;;
31206;SDS011;17834;52.992;8.856;2023-02-28T05:28:59;14.77;;;7.63;;
31206;SDS011;17834;52.992;8.856;2023-02-28T05:31:25;18.88;;;6.95;;
31206;SDS011;17834;52.992;8.856;2023-02-28T05:33:51;15.52;;;8.00;;
31206;SDS011;17834;52.992;8.856;2023-02-28T05:36:17;13.55;;;7.35;;
31206;SDS011;17834;52.992;8.856;2023-02-28T05:38:45;10.60;;;6.93;;
31206;SDS011;17834;52.992;8.856;2023-02-28T05:41:11;11.98;;;6.57;;
31206;SDS011;17834;52.992;8.856;2023-02-28T05:43:37;14.85;;;6.90;;
31206;SDS011;17834;52.992;8.856;2023-02-28T05:46:04;16.00;;;7.88;;
31206;SDS011;17834;52.992;8.856;2023-02-28T05:48:30;17.23;;;7.35;;
31206;SDS011;17834;52.992;8.856;2023-02-28T05:50:57;14.98;;;7.18;;
31206;SDS011;17834;52.992;8.856;2023-02-28T05:53:23;13.18;;;7.40;;
31206;SDS011;17834;52.992;8.856;2023-02-28T05:55:49;14.20;;;7.63;;
31206;SDS011;17834;52.992;8.856;2023-02-28T05:58:15;17.63;;;7.70;;
31206;SDS011;17834;52.992;8.856;2023-02-28T06:00:41;12.27;;;7.13;;
31206;SDS011;17834;52.992;8.856;2023-02-28T06:03:07;12.15;;;6.57;;
31206;SDS011;17834;52.992;8.856;2023-02-28T06:05:33;16.35;;;8.18;;
31206;SDS011;17834;52.992;8.856;2023-02-28T06:07:59;13.02;;;7.25;;
31206;SDS011;17834;52.992;8.856;2023-02-28T06:10:25;17.13;;;7.70;;
31206;SDS011;17834;52.992;8.856;2023-02-28T06:12:50;14.93;;;7.38;;
31206;SDS011;17834;52.992;8.856;2023-02-28T06:15:16;13.23;;;7.53;;
31206;SDS011;17834;52.992;8.856;2023-02-28T06:17:43;11.50;;;7.80;;
31206;SDS011;17834;52.992;8.856;2023-02-28T06:20:09;16.38;;;8.93;;
31206;SDS011;17834;52.992;8.856;2023-02-28T06:22:37;11.30;;;7.53;;
31206;SDS011;17834;52.992;8.856;2023-02-28T06:25:04;11.95;;;7.85;;
31206;SDS011;17834;52.992;8.856;2023-02-28T06:27:30;14.40;;;8.73;;
31206;SDS011;17834;52.992;8.856;2023-02-28T06:29:56;14.55;;;7.68;;
31206;SDS011;17834;52.992;8.856;2023-02-28T06:32:22;14.43;;;7.55;;
31206;SDS011;17834;52.992;8.856;2023-02-28T06:34:48;11.95;;;7.60;;
31206;SDS011;17834;52.992;8.856;2023-02-28T06:37:15;12.85;;;8.48;;
31206;SDS011;17834;52.992;8.856;2023-02-28T06:39:41;13.48;;;7.05;;
31206;SDS011;17834;52.992;8.856;2023-02-28T06:42:07;12.48;;;7.35;;
31206;SDS011;17834;52.992;8.856;2023-02-28T06:44:33;15.73;;;8.52;;
31206;SDS011;17834;52.992;8.856;2023-02-28T06:47:03;10.90;;;7.05;;
31206;SDS011;17834;52.992;8.856;2023-02-28T06:49:30;13.63;;;7.95;;
31206;SDS011;17834;52.992;8.856;2023-02-28T06:51:56;13.45;;;7.60;;
31206;SDS011;17834;52.992;8.856;2023-02-28T06:54:22;16.50;;;8.13;;
31206;SDS011;17834;52.992;8.856;2023-02-28T06:56:48;18.75;;;9.05;;
31206;SDS011;17834;52.992;8.856;2023-02-28T06:59:14;15.68;;;8.18;;
31206;SDS011;17834;52.992;8.856;2023-02-28T07:01:40;20.90;;;8.48;;
31206;SDS011;17834;52.992;8.856;2023-02-28T07:04:06;12.98;;;8.23;;
31206;SDS011;17834;52.992;8.856;2023-02-28T07:06:32;17.00;;;8.52;;
31206;SDS011;17834;52.992;8.856;2023-02-28T07:08:58;15.30;;;9.20;;
31206;SDS011;17834;52.992;8.856;2023-02-28T07:11:25;16.10;;;9.50;;
31206;SDS011;17834;52.992;8.856;2023-02-28T07:13:52;16.08;;;9.63;;
31206;SDS011;17834;52.992;8.856;2023-02-28T07:16:18;14.63;;;8.43;;
31206;SDS011;17834;52.992;8.856;2023-02-28T07:18:44;18.05;;;9.07;;
31206;SDS011;17834;52.992;8.856;2023-02-28T07:21:10;16.60;;;8.73;;
31206;SDS011;17834;52.992;8.856;2023-02-28T07:23:37;18.42;;;9.25;;
31206;SDS011;17834;52.992;8.856;2023-02-28T07:26:03;18.23;;;10.55;;
31206;SDS011;17834;52.992;8.856;2023-02-28T07:28:29;17.25;;;10.32;;
31206;SDS011;17834;52.992;8.856;2023-02-28T07:30:55;22.27;;;10.35;;
31206;SDS011;17834;52.992;8.856;2023-02-28T07:33:21;18.00;;;9.45;;
31206;SDS011;17834;52.992;8.856;2023-02-28T07:35:48;16.25;;;9.35;;
31206;SDS011;17834;52.992;8.856;2023-02-28T07:38:14;16.45;;;9.30;;
31206;SDS011;17834;52.992;8.856;2023-02-28T07:40:40;15.98;;;8.18;;
31206;SDS011;17834;52.992;8.856;2023-02-28T07:43:06;14.60;;;9.40;;
31206;SDS011;17834;52.992;8.856;2023-02-28T07:45:33;15.30;;;8.40;;
31206;SDS011;17834;52.992;8.856;2023-02-28T07:47:59;15.20;;;8.98;;
31206;SDS011;17834;52.992;8.856;2023-02-28T07:50:25;12.23;;;8.55;;
31206;SDS011;17834;52.992;8.856;2023-02-28T07:52:54;15.40;;;8.45;;
31206;SDS011;17834;52.992;8.856;2023-02-28T07:55:19;14.27;;;9.52;;
31206;SDS011;17834;52.992;8.856;2023-02-28T07:57:45;14.30;;;8.45;;
31206;SDS011;17834;52.992;8.856;2023-02-28T08:00:11;18.60;;;9.32;;
31206;SDS011;17834;52.992;8.856;2023-02-28T08:02:38;18.77;;;9.05;;
31206;SDS011;17834;52.992;8.856;2023-02-28T08:05:05;19.30;;;9.98;;
31206;SDS011;17834;52.992;8.856;2023-02-28T08:07:31;14.27;;;8.68;;
31206;SDS011;17834;52.992;8.856;2023-02-28T08:09:58;15.77;;;9.38;;
31206;SDS011;17834;52.992;8.856;2023-02-28T08:12:24;18.42;;;9.57;;
31206;SDS011;17834;52.992;8.856;2023-02-28T08:14:50;19.40;;;9.27;;
31206;SDS011;17834;52.992;8.856;2023-02-28T08:17:16;19.30;;;9.23;;
31206;SDS011;17834;52.992;8.856;2023-02-28T08:19:44;13.48;;;7.95;;
31206;SDS011;17834;52.992;8.856;2023-02-28T08:22:11;17.73;;;9.25;;
31206;SDS011;17834;52.992;8.856;2023-02-28T08:24:37;12.90;;;8.38;;
31206;SDS011;17834;52.992;8.856;2023-02-28T08:27:03;12.80;;;7.68;;
31206;SDS011;17834;52.992;8.856;2023-02-28T08:29:28;15.88;;;8.35;;
31206;SDS011;17834;52.992;8.856;2023-02-28T08:31:55;13.27;;;7.85;;
31206;SDS011;17834;52.992;8.856;2023-02-28T08:34:22;14.52;;;8.07;;
31206;SDS011;17834;52.992;8.856;2023-02-28T08:36:48;16.90;;;7.80;;
31206;SDS011;17834;52.992;8.856;2023-02-28T08:39:14;11.43;;;7.57;;
31206;SDS011;17834;52.992;8.856;2023-02-28T08:41:40;13.48;;;7.95;;
31206;SDS011;17834;52.992;8.856;2023-02-28T08:44:07;16.40;;;7.40;;
31206;SDS011;17834;52.992;8.856;2023-02-28T08:46:33;10.90;;;6.15;;
31206;SDS011;17834;52.992;8.856;2023-02-28T08:48:59;14.63;;;6.57;;
31206;SDS011;17834;52.992;8.856;2023-02-28T08:51:26;8.98;;;5.68;;
31206;SDS011;17834;52.992;8.856;2023-02-28T08:53:53;8.13;;;5.40;;
31206;SDS011;17834;52.992;8.856;2023-02-28T08:56:20;7.60;;;5.32;;
31206;SDS011;17834;52.992;8.856;2023-02-28T08:58:46;11.63;;;5.40;;
31206;SDS011;17834;52.992;8.856;2023-02-28T09:01:14;7.88;;;5.07;;
31206;SDS011;17834;52.992;8.856;2023-02-28T09:03:40;9.20;;;4.65;;
31206;SDS011;17834;52.992;8.856;2023-02-28T09:06:06;9.63;;;5.32;;
31206;SDS011;17834;52.992;8.856;2023-02-28T09:08:33;7.47;;;4.60;;
31206;SDS011;17834;52.992;8.856;2023-02-28T09:10:59;10.55;;;4.55;;
31206;SDS011;17834;52.992;8.856;2023-02-28T09:13:25;6.22;;;4.40;;
31206;SDS011;17834;52.992;8.856;2023-02-28T09:15:52;6.15;;;3.72;;
31206;SDS011;17834;52.992;8.856;2023-02-28T09:18:18;3.97;;;2.90;;
31206;SDS011;17834;52.992;8.856;2023-02-28T09:20:44;10.13;;;3.15;;
31206;SDS011;17834;52.992;8.856;2023-02-28T09:23:10;6.32;;;2.78;;
31206;SDS011;17834;52.992;8.856;2023-02-28T09:25:37;6.68;;;2.95;;
31206;SDS011;17834;52.992;8.856;2023-02-28T09:28:03;5.75;;;3.13;;
31206;SDS011;17834;52.992;8.856;2023-02-28T09:30:30;6.20;;;3.40;;
31206;SDS011;17834;52.992;8.856;2023-02-28T09:32:56;6.07;;;3.17;;
31206;SDS011;17834;52.992;8.856;2023-02-28T09:35:22;4.40;;;2.30;;
31206;SDS011;17834;52.992;8.856;2023-02-28T09:37:49;3.85;;;1.98;;
31206;SDS011;17834;52.992;8.856;2023-02-28T09:40:16;5.43;;;2.00;;
31206;SDS011;17834;52.992;8.856;2023-02-28T09:42:43;3.78;;;2.10;;
31206;SDS011;17834;52.992;8.856;2023-02-28T09:45:24;2.80;;;1.60;;
31206;SDS011;17834;52.992;8.856;2023-02-28T09:47:54;2.95;;;1.55;;
31206;SDS011;17834;52.992;8.856;2023-02-28T09:50:29;1.92;;;1.20;;
31206;SDS011;17834;52.992;8.856;2023-02-28T09:52:57;4.88;;;1.40;;
31206;SDS011;17834;52.992;8.856;2023-02-28T09:55:33;3.90;;;1.30;;
31206;SDS011;17834;52.992;8.856;2023-02-28T09:58:03;2.70;;;1.73;;
31206;SDS011;17834;52.992;8.856;2023-02-28T10:00:33;2.13;;;1.35;;
31206;SDS011;17834;52.992;8.856;2023-02-28T10:03:19;4.28;;;1.67;;
31206;SDS011;17834;52.992;8.856;2023-02-28T10:05:52;1.95;;;1.10;;
31206;SDS011;17834;52.992;8.856;2023-02-28T10:08:23;1.98;;;1.00;;
31206;SDS011;17834;52.992;8.856;2023-02-28T10:10:51;3.45;;;1.60;;
31206;SDS011;17834;52.992;8.856;2023-02-28T10:13:21;2.15;;;1.35;;
31206;SDS011;17834;52.992;8.856;2023-02-28T10:15:49;1.77;;;1.20;;
31206;SDS011;17834;52.992;8.856;2023-02-28T10:18:19;2.08;;;1.20;;
31206;SDS011;17834;52.992;8.856;2023-02-28T10:20:46;2.50;;;1.40;;
31206;SDS011;17834;52.992;8.856;2023-02-28T10:23:20;3.67;;;1.05;;
31206;SDS011;17834;52.992;8.856;2023-02-28T10:26:19;1.48;;;0.90;;
31206;SDS011;17834;52.992;8.856;2023-02-28T10:28:38;5.78;;;1.30;;
31206;SDS011;17834;52.992;8.856;2023-02-28T10:31:05;3.35;;;1.40;;
31206;SDS011;17834;52.992;8.856;2023-02-28T10:33:32;5.55;;;2.10;;
31206;SDS011;17834;52.992;8.856;2023-02-28T10:35:59;5.50;;;1.73;;
31206;SDS011;17834;52.992;8.856;2023-02-28T10:38:27;3.88;;;1.83;;
31206;SDS011;17834;52.992;8.856;2023-02-28T10:41:09;4.80;;;1.85;;
31206;SDS011;17834;52.992;8.856;2023-02-28T10:43:36;3.33;;;1.60;;
31206;SDS011;17834;52.992;8.856;2023-02-28T10:46:04;2.50;;;1.52;;
31206;SDS011;17834;52.992;8.856;2023-02-28T10:48:38;2.45;;;1.60;;
31206;SDS011;17834;52.992;8.856;2023-02-28T10:51:08;2.58;;;1.63;;
31206;SDS011;17834;52.992;8.856;2023-02-28T10:53:36;2.55;;;1.80;;
31206;SDS011;17834;52.992;8.856;2023-02-28T10:56:14;3.03;;;1.63;;
31206;SDS011;17834;52.992;8.856;2023-02-28T10:58:52;3.60;;;1.50;;
31206;SDS011;17834;52.992;8.856;2023-02-28T11:03:51;3.30;;;1.98;;
31206;SDS011;17834;52.992;8.856;2023-02-28T11:06:18;5.15;;;1.50;;
31206;SDS011;17834;52.992;8.856;2023-02-28T11:08:46;5.90;;;1.92;;
31206;SDS011;17834;52.992;8.856;2023-02-28T11:11:13;3.17;;;1.55;;
31206;SDS011;17834;52.992;8.856;2023-02-28T11:13:41;3.65;;;1.70;;
31206;SDS011;17834;52.992;8.856;2023-02-28T11:16:09;2.80;;;1.63;;
31206;SDS011;17834;52.992;8.856;2023-02-28T11:18:39;3.25;;;1.33;;
31206;SDS011;17834;52.992;8.856;2023-02-28T11:21:06;1.80;;;1.30;;
31206;SDS011;17834;52.992;8.856;2023-02-28T11:23:33;3.17;;;2.22;;
31206;SDS011;17834;52.992;8.856;2023-02-28T11:26:01;2.25;;;1.10;;
31206;SDS011;17834;52.992;8.856;2023-02-28T11:28:30;3.00;;;1.45;;
31206;SDS011;17834;52.992;8.856;2023-02-28T11:33:30;4.85;;;1.63;;
31206;SDS011;17834;52.992;8.856;2023-02-28T11:36:04;3.88;;;1.85;;
31206;SDS011;17834;52.992;8.856;2023-02-28T11:38:34;2.60;;;1.50;;
31206;SDS011;17834;52.992;8.856;2023-02-28T11:46:02;3.00;;;1.63;;
31206;SDS011;17834;52.992;8.856;2023-02-28T11:53:32;3.70;;;1.58;;
31206;SDS011;17834;52.992;8.856;2023-02-28T11:56:06;3.92;;;2.00;;
31206;SDS011;17834;52.992;8.856;2023-02-28T11:58:37;3.67;;;1.83;;
31206;SDS011;17834;52.992;8.856;2023-02-28T12:09:32;2.28;;;1.73;;
31206;SDS011;17834;52.992;8.856;2023-02-28T12:14:40;2.28;;;1.35;;
31206;SDS011;17834;52.992;8.856;2023-02-28T12:17:22;3.05;;;1.75;;
31206;SDS011;17834;52.992;8.856;2023-02-28T12:20:05;3.20;;;1.63;;
31206;SDS011;17834;52.992;8.856;2023-02-28T12:22:55;1.80;;;1.45;;
31206;SDS011;17834;52.992;8.856;2023-02-28T12:25:40;2.67;;;1.75;;
31206;SDS011;17834;52.992;8.856;2023-02-28T12:28:10;2.15;;;1.50;;
31206;SDS011;17834;52.992;8.856;2023-02-28T12:30:38;1.90;;;1.35;;
31206;SDS011;17834;52.992;8.856;2023-02-28T12:33:11;2.78;;;1.33;;
31206;SDS011;17834;52.992;8.856;2023-02-28T12:35:41;3.00;;;1.77;;
31206;SDS011;17834;52.992;8.856;2023-02-28T12:38:13;4.20;;;1.80;;
31206;SDS011;17834;52.992;8.856;2023-02-28T12:43:08;6.45;;;1.77;;
31206;SDS011;17834;52.992;8.856;2023-02-28T12:48:11;2.80;;;1.80;;
31206;SDS011;17834;52.992;8.856;2023-02-28T12:50:39;4.97;;;1.88;;
31206;SDS011;17834;52.992;8.856;2023-02-28T12:53:14;3.25;;;1.65;;
31206;SDS011;17834;52.992;8.856;2023-02-28T12:55:52;3.35;;;1.70;;
31206;SDS011;17834;52.992;8.856;2023-02-28T12:58:24;2.53;;;1.65;;
31206;SDS011;17834;52.992;8.856;2023-02-28T13:08:48;2.42;;;1.60;;
31206;SDS011;17834;52.992;8.856;2023-02-28T13:11:28;4.32;;;2.13;;
31206;SDS011;17834;52.992;8.856;2023-02-28T13:14:02;3.72;;;1.50;;
31206;SDS011;17834;52.992;8.856;2023-02-28T13:16:46;1.83;;;1.50;;
31206;SDS011;17834;52.992;8.856;2023-02-28T13:19:16;3.08;;;1.58;;
31206;SDS011;17834;52.992;8.856;2023-02-28T13:21:43;5.20;;;1.80;;
31206;SDS011;17834;52.992;8.856;2023-02-28T13:24:10;3.03;;;1.70;;
31206;SDS011;17834;52.992;8.856;2023-02-28T13:32:18;3.67;;;1.58;;
31206;SDS011;17834;52.992;8.856;2023-02-28T13:34:27;2.53;;;1.55;;
31206;SDS011;17834;52.992;8.856;2023-02-28T13:37:20;3.03;;;1.50;;
31206;SDS011;17834;52.992;8.856;2023-02-28T13:47:28;2.53;;;1.55;;
31206;SDS011;17834;52.992;8.856;2023-02-28T13:50:13;2.03;;;1.33;;
31206;SDS011;17834;52.992;8.856;2023-02-28T13:55:27;2.53;;;1.73;;
31206;SDS011;17834;52.992;8.856;2023-02-28T14:00:40;2.50;;;1.65;;
31206;SDS011;17834;52.992;8.856;2023-02-28T14:05:40;3.53;;;1.90;;
31206;SDS011;17834;52.992;8.856;2023-02-28T14:08:18;2.55;;;1.50;;
31206;SDS011;17834;52.992;8.856;2023-02-28T14:10:50;3.13;;;2.00;;
31206;SDS011;17834;52.992;8.856;2023-02-28T14:16:03;2.72;;;1.70;;
31206;SDS011;17834;52.992;8.856;2023-02-28T14:18:32;2.20;;;1.38;;
31206;SDS011;17834;52.992;8.856;2023-02-28T14:21:03;3.03;;;1.30;;
31206;SDS011;17834;52.992;8.856;2023-02-28T14:23:36;2.67;;;1.52;;
31206;SDS011;17834;52.992;8.856;2023-02-28T14:26:13;2.88;;;1.27;;
31206;SDS011;17834;52.992;8.856;2023-02-28T14:31:25;2.22;;;1.30;;
31206;SDS011;17834;52.992;8.856;2023-02-28T14:34:10;2.45;;;1.42;;
31206;SDS011;17834;52.992;8.856;2023-02-28T14:36:39;4.20;;;1.42;;
31206;SDS011;17834;52.992;8.856;2023-02-28T14:39:07;2.75;;;1.38;;
31206;SDS011;17834;52.992;8.856;2023-02-28T14:41:34;4.35;;;1.55;;
31206;SDS011;17834;52.992;8.856;2023-02-28T14:44:02;3.20;;;1.38;;
31206;SDS011;17834;52.992;8.856;2023-02-28T14:46:41;2.90;;;1.30;;
31206;SDS011;17834;52.992;8.856;2023-02-28T14:51:42;2.57;;;1.67;;
31206;SDS011;17834;52.992;8.856;2023-02-28T14:54:12;2.42;;;1.35;;
31206;SDS011;17834;52.992;8.856;2023-02-28T14:56:39;1.58;;;1.20;;
31206;SDS011;17834;52.992;8.856;2023-02-28T14:59:05;2.35;;;1.60;;
31206;SDS011;17834;52.992;8.856;2023-02-28T15:01:44;2.58;;;1.40;;
31206;SDS011;17834;52.992;8.856;2023-02-28T15:04:15;3.05;;;1.35;;
31206;SDS011;17834;52.992;8.856;2023-02-28T15:06:44;2.47;;;1.40;;
31206;SDS011;17834;52.992;8.856;2023-02-28T15:09:13;1.85;;;1.20;;
31206;SDS011;17834;52.992;8.856;2023-02-28T15:11:40;2.70;;;1.60;;
31206;SDS011;17834;52.992;8.856;2023-02-28T15:14:06;5.13;;;2.28;;
31206;SDS011;17834;52.992;8.856;2023-02-28T15:16:36;2.40;;;1.38;;
31206;SDS011;17834;52.992;8.856;2023-02-28T15:19:07;3.30;;;1.52;;
31206;SDS011;17834;52.992;8.856;2023-02-28T15:21:38;2.70;;;1.52;;
31206;SDS011;17834;52.992;8.856;2023-02-28T15:26:49;4.82;;;2.05;;
31206;SDS011;17834;52.992;8.856;2023-02-28T15:29:19;4.00;;;1.65;;
31206;SDS011;17834;52.992;8.856;2023-02-28T15:31:48;3.17;;;1.70;;
31206;SDS011;17834;52.992;8.856;2023-02-28T15:34:19;3.13;;;1.80;;
31206;SDS011;17834;52.992;8.856;2023-02-28T15:36:45;2.13;;;1.50;;
31206;SDS011;17834;52.992;8.856;2023-02-28T15:39:25;2.38;;;1.50;;
31206;SDS011;17834;52.992;8.856;2023-02-28T15:42:16;4.88;;;2.05;;
31206;SDS011;17834;52.992;8.856;2023-02-28T15:44:43;4.13;;;1.48;;
31206;SDS011;17834;52.992;8.856;2023-02-28T15:47:28;4.40;;;1.58;;
31206;SDS011;17834;52.992;8.856;2023-02-28T15:49:59;2.42;;;1.50;;
31206;SDS011;17834;52.992;8.856;2023-02-28T15:52:27;2.88;;;1.60;;
31206;SDS011;17834;52.992;8.856;2023-02-28T15:54:56;3.72;;;1.65;;
31206;SDS011;17834;52.992;8.856;2023-02-28T15:57:25;4.30;;;2.80;;
31206;SDS011;17834;52.992;8.856;2023-02-28T15:59:58;5.63;;;2.55;;
31206;SDS011;17834;52.992;8.856;2023-02-28T16:02:32;5.03;;;2.00;;
31206;SDS011;17834;52.992;8.856;2023-02-28T16:05:01;3.50;;;2.22;;
31206;SDS011;17834;52.992;8.856;2023-02-28T16:07:27;4.35;;;1.85;;
31206;SDS011;17834;52.992;8.856;2023-02-28T16:09:53;3.72;;;2.00;;
31206;SDS011;17834;52.992;8.856;2023-02-28T16:12:20;5.47;;;3.00;;
31206;SDS011;17834;52.992;8.856;2023-02-28T16:14:47;5.35;;;2.83;;
31206;SDS011;17834;52.992;8.856;2023-02-28T16:17:20;5.30;;;2.80;;
31206;SDS011;17834;52.992;8.856;2023-02-28T16:19:46;10.00;;;4.47;;
31206;SDS011;17834;52.992;8.856;2023-02-28T16:22:12;6.13;;;2.90;;
31206;SDS011;17834;52.992;8.856;2023-02-28T16:24:38;6.85;;;2.83;;
31206;SDS011;17834;52.992;8.856;2023-02-28T16:27:05;7.68;;;3.40;;
31206;SDS011;17834;52.992;8.856;2023-02-28T16:29:32;10.23;;;4.53;;
31206;SDS011;17834;52.992;8.856;2023-02-28T16:32:00;9.50;;;3.80;;
31206;SDS011;17834;52.992;8.856;2023-02-28T16:34:27;5.47;;;2.22;;
31206;SDS011;17834;52.992;8.856;2023-02-28T16:36:53;5.07;;;2.28;;